Time;durP1;ratioP1;P1;durP2;ratioP2;P2;SDS_P1;SDS_P2;PMS_P1;PMS_P2;Temp;Humidity;BMP_temperature;BMP_pressure;BME280_temperature;BME280_humidity;BME280_pressure;Samples;Min_cycle;Max_cycle;Signal;HPM_P1;HPM_P2
2020/12/21 00:01:22;;;;;;;0.60;0.40;;;;;;;7.86;78.83;100132.59;4928000;29;20028;-76
2020/12/21 00:03:47;;;;;;;2.47;0.30;;;;;;;7.87;78.16;100130.69;4920650;29;20071;-75
2020/12/21 00:06:16;;;;;;;2.40;0.30;;;;;;;7.90;79.25;100126.63;4911182;29;20042;-75
2020/12/21 00:08:42;;;;;;;0.50;0.40;;;;;;;7.93;78.96;100129.69;4929008;29;20455;-75
2020/12/21 00:11:08;;;;;;;1.00;0.60;;;;;;;7.96;78.62;100131.06;4924511;29;20505;-75
2020/12/21 00:13:42;;;;;;;1.23;0.95;;;;;;;7.99;78.31;100127.84;4929910;29;20054;-76
2020/12/21 00:16:08;;;;;;;4.47;0.85;;;;;;;7.99;79.37;100117.75;4903060;29;20039;-76
2020/12/21 00:18:33;;;;;;;1.77;0.63;;;;;;;8.03;78.50;100128.94;4905214;29;20507;-75
2020/12/21 00:20:58;;;;;;;6.07;0.55;;;;;;;8.06;78.44;100123.00;4929699;29;20035;-74
2020/12/21 00:23:24;;;;;;;9.63;1.20;;;;;;;8.08;79.01;100109.94;4902997;29;20399;-75
2020/12/21 00:25:49;;;;;;;13.25;1.75;;;;;;;8.13;79.40;100118.19;4909126;29;20043;-75
2020/12/21 00:28:14;;;;;;;6.05;0.63;;;;;;;8.12;79.37;100113.81;4907857;29;20035;-78
2020/12/21 00:30:40;;;;;;;4.70;0.82;;;;;;;8.18;80.08;100120.13;4911791;29;20062;-75
2020/12/21 00:33:05;;;;;;;3.25;0.95;;;;;;;8.22;79.94;100121.25;4918701;29;20063;-79
2020/12/21 00:35:31;;;;;;;3.85;0.75;;;;;;;8.25;79.96;100109.00;4916053;29;20103;-77
2020/12/21 00:37:56;;;;;;;3.28;0.70;;;;;;;8.29;80.15;100112.84;4895483;29;20028;-76
2020/12/21 00:40:22;;;;;;;1.75;0.60;;;;;;;8.31;80.21;100114.25;4900367;29;20038;-77
2020/12/21 00:42:47;;;;;;;0.82;0.63;;;;;;;8.32;79.76;100124.06;4918758;29;20475;-76
2020/12/21 00:45:12;;;;;;;5.00;1.20;;;;;;;8.37;79.92;100121.38;4876312;29;20474;-74
2020/12/21 00:47:38;;;;;;;9.65;0.68;;;;;;;8.40;79.92;100122.78;4896518;29;20031;-74
2020/12/21 00:50:06;;;;;;;1.85;0.63;;;;;;;8.43;80.72;100122.25;4907793;29;20036;-75
2020/12/21 00:52:31;;;;;;;2.17;0.70;;;;;;;8.44;80.69;100106.72;4931266;29;20040;-75
2020/12/21 00:54:57;;;;;;;3.97;0.65;;;;;;;8.46;80.77;100099.97;4904003;29;20032;-75
2020/12/21 00:57:22;;;;;;;6.28;1.08;;;;;;;8.48;80.78;100092.34;4894699;29;20403;-75
2020/12/21 00:59:48;;;;;;;6.05;0.77;;;;;;;8.49;80.96;100085.81;4916403;29;20046;-75
2020/12/21 01:02:13;;;;;;;3.53;1.00;;;;;;;8.52;80.73;100081.75;4908262;29;20043;-75
2020/12/21 01:04:38;;;;;;;0.65;0.52;;;;;;;8.53;80.41;100078.78;4912374;29;20039;-75
2020/12/21 01:07:04;;;;;;;1.50;0.50;;;;;;;8.55;80.82;100082.03;4931756;29;20119;-76
2020/12/21 01:09:30;;;;;;;3.60;1.00;;;;;;;8.58;81.68;100085.34;4906880;29;20068;-75
2020/12/21 01:11:55;;;;;;;8.43;0.70;;;;;;;8.58;81.29;100074.44;4918237;29;20043;-75
2020/12/21 01:14:21;;;;;;;4.53;0.55;;;;;;;8.62;81.39;100070.13;4931046;29;20036;-75
2020/12/21 01:16:46;;;;;;;3.20;0.60;;;;;;;8.64;81.01;100067.94;4869352;29;20096;-73
2020/12/21 01:19:12;;;;;;;4.15;0.95;;;;;;;8.68;80.95;100063.63;4883337;29;20039;-73
2020/12/21 01:21:37;;;;;;;0.73;0.50;;;;;;;8.70;81.30;100055.97;4926111;29;20027;-75
2020/12/21 01:24:03;;;;;;;3.75;0.50;;;;;;;8.73;80.89;100053.56;4919562;29;20434;-74
2020/12/21 01:26:29;;;;;;;1.85;0.50;;;;;;;8.73;81.48;100045.38;4904602;29;20454;-74
2020/12/21 01:28:55;;;;;;;3.67;0.65;;;;;;;8.75;81.24;100042.41;4900948;29;20027;-74
2020/12/21 01:31:21;;;;;;;2.55;0.60;;;;;;;8.78;80.93;100047.31;4924192;29;20110;-75
2020/12/21 01:33:48;;;;;;;0.55;0.45;;;;;;;8.79;81.18;100038.06;4909296;29;20122;-76
2020/12/21 01:36:14;;;;;;;1.40;0.40;;;;;;;8.75;81.36;100031.50;4922888;29;20024;-76
2020/12/21 01:38:39;;;;;;;2.90;1.40;;;;;;;8.79;81.60;100043.53;4925327;29;20027;-75
2020/12/21 01:41:04;;;;;;;4.25;0.65;;;;;;;8.77;81.43;100033.94;4905494;29;20028;-75
2020/12/21 01:43:30;;;;;;;2.13;0.20;;;;;;;8.79;81.69;100029.88;4920000;29;20032;-75
2020/12/21 01:45:55;;;;;;;2.92;0.57;;;;;;;8.84;81.59;100029.91;4946537;28;20043;-74
2020/12/21 01:48:21;;;;;;;1.65;0.40;;;;;;;8.86;81.21;100027.75;4903856;29;20035;-74
2020/12/21 01:50:47;;;;;;;1.17;0.30;;;;;;;8.88;81.36;100025.56;4904327;29;20039;-75
2020/12/21 01:53:12;;;;;;;2.38;0.30;;;;;;;8.87;82.15;100018.47;4934321;29;20031;-74
2020/12/21 01:55:40;;;;;;;1.40;0.50;;;;;;;8.89;82.42;100010.84;4913636;29;20028;-76
2020/12/21 01:58:06;;;;;;;5.93;0.70;;;;;;;8.86;82.16;100019.56;4929847;29;20110;-76
2020/12/21 02:00:32;;;;;;;4.13;1.00;;;;;;;8.84;81.98;100002.63;4904953;29;20035;-75
2020/12/21 02:02:57;;;;;;;5.40;1.42;;;;;;;8.81;82.99;99984.06;4915671;29;20079;-76
2020/12/21 02:05:23;;;;;;;1.13;0.22;;;;;;;8.78;83.22;99970.19;4912105;29;20046;-77
2020/12/21 02:07:49;;;;;;;2.90;0.50;;;;;;;8.86;83.04;99981.41;4926041;29;20031;-75
2020/12/21 02:10:14;;;;;;;3.45;0.70;;;;;;;8.88;83.53;99975.66;4925659;29;20063;-76
2020/12/21 02:12:40;;;;;;;4.13;0.52;;;;;;;8.89;83.34;99961.78;4897068;29;20024;-77
2020/12/21 02:15:05;;;;;;;2.40;0.65;;;;;;;8.94;83.16;99968.34;4903730;29;20043;-76
2020/12/21 02:17:31;;;;;;;9.80;1.08;;;;;;;9.00;82.98;99972.72;4884979;29;20036;-75
2020/12/21 02:19:56;;;;;;;6.75;0.95;;;;;;;9.04;83.16;99976.56;4925841;29;20394;-77
2020/12/21 02:22:23;;;;;;;0.82;0.65;;;;;;;9.02;83.81;99960.47;4931815;29;20458;-75
2020/12/21 02:24:49;;;;;;;4.40;0.50;;;;;;;9.03;83.62;99951.16;4933859;29;20139;-74
2020/12/21 02:27:14;;;;;;;2.15;0.60;;;;;;;9.04;82.88;99952.00;4932857;29;20032;-74
2020/12/21 02:29:39;;;;;;;4.65;0.50;;;;;;;9.04;83.37;99949.28;4923050;29;20066;-75
2020/12/21 02:32:05;;;;;;;9.10;0.98;;;;;;;9.14;83.79;99941.13;4928987;29;20066;-75
2020/12/21 02:34:30;;;;;;;1.65;0.20;;;;;;;9.16;83.11;99911.66;4942506;29;20085;-75
2020/12/21 02:36:56;;;;;;;1.10;0.40;;;;;;;9.19;83.41;99922.03;4902255;29;20040;-75
2020/12/21 02:39:23;;;;;;;1.48;0.35;;;;;;;9.22;83.69;99905.13;4921380;29;20036;-75
2020/12/21 02:41:50;;;;;;;7.25;0.70;;;;;;;9.25;83.81;99901.84;4916167;29;20039;-76
2020/12/21 02:44:16;;;;;;;2.65;0.52;;;;;;;9.23;83.61;99905.97;4921627;29;20056;-75
2020/12/21 02:46:43;;;;;;;5.07;0.77;;;;;;;9.23;83.65;99898.59;4917299;29;20024;-75
2020/12/21 02:49:08;;;;;;;2.67;0.40;;;;;;;9.18;83.43;99884.94;4927382;29;20034;-75
2020/12/21 02:51:34;;;;;;;10.25;0.50;;;;;;;9.20;84.36;99884.66;4913266;29;20036;-75
2020/12/21 02:53:59;;;;;;;5.90;0.73;;;;;;;9.21;83.25;99881.69;4910221;29;20453;-74
2020/12/21 02:56:24;;;;;;;2.42;0.32;;;;;;;9.21;83.44;99868.03;4916708;29;20036;-74
2020/12/21 02:58:50;;;;;;;3.03;0.52;;;;;;;9.25;84.07;99860.94;4902755;29;20036;-75
2020/12/21 03:01:15;;;;;;;1.88;0.20;;;;;;;9.28;84.10;99850.59;4923887;29;20070;-74
2020/12/21 03:03:41;;;;;;;2.03;0.40;;;;;;;9.33;83.36;99834.19;4882183;29;20044;-75
2020/12/21 03:06:06;;;;;;;3.40;0.45;;;;;;;9.35;83.73;99823.84;4907897;29;20031;-75
2020/12/21 03:08:31;;;;;;;1.10;0.45;;;;;;;9.33;84.23;99817.81;4928259;29;20036;-75
2020/12/21 03:10:57;;;;;;;1.52;0.40;;;;;;;9.33;83.43;99812.38;4923688;29;20032;-74
2020/12/21 03:13:22;;;;;;;3.05;0.80;;;;;;;9.37;83.99;99808.00;4934201;29;20443;-74
2020/12/21 03:15:48;;;;;;;4.18;0.60;;;;;;;9.36;83.15;99801.75;4913917;29;20019;-73
2020/12/21 03:18:13;;;;;;;4.70;0.50;;;;;;;9.34;83.71;99797.66;4927006;29;20387;-75
2020/12/21 03:20:38;;;;;;;1.05;0.50;;;;;;;9.34;83.41;99781.28;4892626;29;20039;-73
2020/12/21 03:23:04;;;;;;;1.55;0.45;;;;;;;9.35;83.99;99766.53;4921664;29;20159;-74
2020/12/21 03:25:29;;;;;;;2.13;0.50;;;;;;;9.35;84.04;99747.44;4922020;29;20458;-75
2020/12/21 03:27:55;;;;;;;1.95;0.50;;;;;;;9.38;83.79;99746.91;4881896;29;20122;-75
2020/12/21 03:30:20;;;;;;;3.55;0.50;;;;;;;9.36;84.26;99752.63;4915078;29;20031;-75
2020/12/21 03:32:45;;;;;;;2.92;0.57;;;;;;;9.35;83.74;99758.38;4916643;29;20055;-75
2020/12/21 03:35:11;;;;;;;2.72;0.68;;;;;;;9.38;83.35;99760.53;4894278;29;20498;-75
2020/12/21 03:37:36;;;;;;;1.95;0.30;;;;;;;9.35;84.38;99736.53;4913186;29;20386;-75
2020/12/21 03:40:07;;;;;;;0.90;0.20;;;;;;;9.37;84.46;99729.69;4931630;29;20028;-75
2020/12/21 03:42:33;;;;;;;1.00;0.32;;;;;;;9.36;83.87;99708.13;4917655;29;21139;-75
2020/12/21 03:44:59;;;;;;;4.50;0.35;;;;;;;9.37;84.53;99715.22;4907623;29;20032;-74
2020/12/21 03:47:25;;;;;;;0.80;0.50;;;;;;;9.40;84.08;99710.06;4927285;29;20078;-75
2020/12/21 03:49:50;;;;;;;1.48;0.47;;;;;;;9.39;84.25;99708.41;4903729;29;20497;-75
2020/12/21 03:52:15;;;;;;;0.45;0.22;;;;;;;9.43;84.51;99692.28;4917907;29;20422;-74
2020/12/21 03:54:41;;;;;;;1.60;0.30;;;;;;;9.42;84.23;99686.03;4911826;29;20039;-74
2020/12/21 03:57:06;;;;;;;3.50;0.75;;;;;;;9.48;83.84;99689.56;4908515;29;20039;-75
2020/12/21 03:59:32;;;;;;;1.88;0.38;;;;;;;9.47;84.52;99670.75;4935247;28;20027;-74
2020/12/21 04:01:57;;;;;;;3.50;0.80;;;;;;;9.48;84.83;99662.28;4900421;29;20075;-74
2020/12/21 04:04:23;;;;;;;3.33;0.50;;;;;;;9.51;84.64;99656.25;4915181;29;20094;-74
2020/12/21 04:06:48;;;;;;;0.70;0.50;;;;;;;9.54;84.35;99661.16;4903883;29;20024;-75
2020/12/21 04:09:13;;;;;;;1.45;0.43;;;;;;;9.56;84.53;99648.06;4926137;29;20034;-74
2020/12/21 04:11:39;;;;;;;7.43;0.47;;;;;;;9.55;84.41;99627.31;4931895;29;20035;-74
2020/12/21 04:14:05;;;;;;;1.83;0.30;;;;;;;9.56;84.28;99623.50;4920909;29;20038;-71
2020/12/21 04:16:30;;;;;;;4.63;0.32;;;;;;;9.55;85.05;99632.78;4913381;29;20028;-74
2020/12/21 04:18:56;;;;;;;1.00;0.30;;;;;;;9.57;84.83;99622.38;4919416;29;20448;-75
2020/12/21 04:21:21;;;;;;;3.67;0.32;;;;;;;9.60;84.81;99615.56;4929028;29;20126;-75
2020/12/21 04:23:47;;;;;;;0.77;0.30;;;;;;;9.61;84.88;99615.28;4922161;29;20032;-76
2020/12/21 04:26:12;;;;;;;2.05;0.60;;;;;;;9.66;84.47;99610.91;4928318;29;20122;-75
2020/12/21 04:28:39;;;;;;;0.43;0.38;;;;;;;9.68;85.33;99600.50;4923514;29;20386;-73
2020/12/21 04:31:05;;;;;;;0.35;0.15;;;;;;;9.65;84.69;99588.25;4922233;29;20558;-73
2020/12/21 04:33:31;;;;;;;1.58;0.15;;;;;;;9.63;85.05;99570.50;4922160;29;20052;-76
2020/12/21 04:35:57;;;;;;;3.30;0.20;;;;;;;9.62;85.38;99553.31;4934768;29;20374;-75
2020/12/21 04:38:22;;;;;;;3.70;0.22;;;;;;;9.61;85.74;99541.56;4920197;29;20036;-77
2020/12/21 04:40:51;;;;;;;0.45;0.10;;;;;;;9.64;85.32;99539.38;4896195;29;20027;-76
2020/12/21 04:43:16;;;;;;;0.35;0.20;;;;;;;9.63;85.27;99532.31;4918488;29;20040;-76
2020/12/21 04:45:44;;;;;;;1.27;0.10;;;;;;;9.61;85.61;99521.66;4923891;29;20088;-77
2020/12/21 04:48:15;;;;;;;1.00;0.10;;;;;;;9.60;85.75;99514.56;4931011;29;20457;-76
2020/12/21 04:50:41;;;;;;;1.20;0.40;;;;;;;9.56;85.92;99514.31;4905881;29;20024;-77
2020/12/21 04:53:08;;;;;;;1.30;0.22;;;;;;;9.57;85.73;99506.94;4916241;29;20454;-74
2020/12/21 04:55:33;;;;;;;0.20;0.15;;;;;;;9.55;85.71;99509.97;4926371;29;20028;-73
2020/12/21 04:58:02;;;;;;;0.85;0.20;;;;;;;9.54;86.23;99491.94;4909370;29;20087;-73
2020/12/21 05:00:30;;;;;;;0.63;0.20;;;;;;;9.56;86.68;99478.84;4916847;29;20024;-76
2020/12/21 05:02:56;;;;;;;0.35;0.10;;;;;;;9.59;86.23;99461.91;4919222;29;20016;-75
2020/12/21 05:05:27;;;;;;;0.65;0.17;;;;;;;9.62;86.65;99449.56;4914583;29;20025;-74
2020/12/21 05:07:53;;;;;;;0.30;0.20;;;;;;;9.63;86.45;99444.94;4916703;29;20494;-75
2020/12/21 05:10:18;;;;;;;1.08;0.20;;;;;;;9.64;87.13;99433.75;4931002;29;20047;-75
2020/12/21 05:12:44;;;;;;;0.13;0.10;;;;;;;9.64;87.31;99425.56;4911864;29;20049;-75
2020/12/21 05:15:13;;;;;;;3.63;0.20;;;;;;;9.66;87.34;99433.47;4903380;29;20039;-75
2020/12/21 05:17:39;;;;;;;0.20;0.10;;;;;;;9.70;87.72;99434.53;4922223;29;20050;-75
2020/12/21 05:20:04;;;;;;;1.42;0.20;;;;;;;9.72;87.98;99426.84;4921582;29;20531;-74
2020/12/21 05:22:30;;;;;;;0.20;0.10;;;;;;;9.73;87.59;99440.22;4925764;29;20036;-75
2020/12/21 05:25:06;;;;;;;2.72;0.20;;;;;;;9.75;87.76;99437.22;4897481;29;20406;-75
2020/12/21 05:27:32;;;;;;;0.32;0.17;;;;;;;9.80;88.59;99423.53;4913444;29;20031;-74
2020/12/21 05:29:58;;;;;;;0.93;0.88;;;;;;;9.84;88.50;99429.22;4932297;29;20087;-74
2020/12/21 05:32:24;;;;;;;0.70;0.30;;;;;;;9.85;88.63;99415.28;4922228;29;20086;-74
2020/12/21 05:34:50;;;;;;;2.40;0.20;;;;;;;9.92;88.65;99413.03;4940488;29;20043;-74
2020/12/21 05:37:20;;;;;;;0.57;0.20;;;;;;;9.94;88.98;99397.19;4932653;29;20040;-74
2020/12/21 05:39:55;;;;;;;1.15;0.30;;;;;;;10.05;88.99;99394.38;4933232;29;20110;-75
2020/12/21 05:42:21;;;;;;;1.33;0.20;;;;;;;10.03;88.87;99372.81;4922308;29;20043;-74
2020/12/21 05:44:56;;;;;;;2.55;0.20;;;;;;;10.08;89.21;99369.22;4922235;29;20035;-75
2020/12/21 05:47:23;;;;;;;0.68;0.10;;;;;;;10.08;89.41;99369.22;4933327;29;20110;-75
2020/12/21 05:49:54;;;;;;;0.43;0.20;;;;;;;10.10;88.78;99361.53;4921621;29;20376;-75
2020/12/21 05:52:28;;;;;;;1.90;0.22;;;;;;;10.10;89.52;99353.34;4932497;29;20078;-74
2020/12/21 05:54:54;;;;;;;3.33;0.20;;;;;;;10.10;89.52;99350.59;4927349;29;20084;-75
2020/12/21 05:57:27;;;;;;;0.43;0.10;;;;;;;10.10;88.96;99345.13;4935001;29;20063;-75
2020/12/21 05:59:53;;;;;;;7.07;0.40;;;;;;;10.08;89.11;99320.84;4930127;29;20110;-75
2020/12/21 06:02:19;;;;;;;3.63;0.32;;;;;;;10.09;89.06;99333.41;4929642;29;20136;-74
2020/12/21 06:04:49;;;;;;;3.90;0.20;;;;;;;10.11;89.32;99346.78;4929971;29;20091;-74
2020/12/21 06:07:21;;;;;;;3.92;0.57;;;;;;;10.11;89.43;99339.38;4928326;29;20028;-71
2020/12/21 06:09:50;;;;;;;2.30;0.30;;;;;;;10.14;89.46;99335.25;4927821;29;20040;-72
2020/12/21 06:12:18;;;;;;;0.73;0.15;;;;;;;10.15;89.58;99353.28;4933639;29;20071;-72
2020/12/21 06:14:45;;;;;;;0.60;0.20;;;;;;;10.17;89.90;99326.50;4923614;29;20030;-72
2020/12/21 06:17:13;;;;;;;2.28;0.55;;;;;;;10.17;89.50;99339.34;4917186;29;20019;-72
2020/12/21 06:19:39;;;;;;;0.52;0.40;;;;;;;10.20;89.78;99319.63;4928631;29;20082;-71
2020/12/21 06:22:04;;;;;;;1.98;0.22;;;;;;;10.19;89.27;99326.19;4923358;29;20449;-72
2020/12/21 06:24:37;;;;;;;5.20;0.30;;;;;;;10.21;89.89;99283.03;4921392;29;20036;-72
2020/12/21 06:27:13;;;;;;;0.70;0.40;;;;;;;10.20;89.91;99279.47;4923947;29;20107;-73
2020/12/21 06:29:39;;;;;;;1.20;0.20;;;;;;;10.22;89.04;99270.97;4925591;29;20028;-72
2020/12/21 06:32:06;;;;;;;1.10;0.20;;;;;;;10.22;89.77;99269.06;4921907;29;20492;-73
2020/12/21 06:34:36;;;;;;;2.45;0.50;;;;;;;10.24;89.76;99252.38;4908978;29;20129;-71
2020/12/21 06:37:20;;;;;;;1.10;0.10;;;;;;;10.27;89.25;99263.53;4913405;29;20044;-72
2020/12/21 06:39:57;;;;;;;1.77;0.50;;;;;;;10.25;89.54;99235.69;4917720;29;20080;-72
2020/12/21 06:42:26;;;;;;;1.67;0.17;;;;;;;10.23;89.93;99229.69;4933702;29;20565;-73
2020/12/21 06:44:54;;;;;;;1.05;0.20;;;;;;;10.29;89.32;99234.00;4915457;29;20478;-71
2020/12/21 06:47:21;;;;;;;3.25;0.47;;;;;;;10.27;89.92;99238.13;4900074;29;20028;-74
2020/12/21 06:49:46;;;;;;;5.05;0.50;;;;;;;10.26;90.12;99244.69;4922936;29;20028;-74
2020/12/21 06:52:12;;;;;;;1.23;0.35;;;;;;;10.28;89.26;99240.56;4915854;29;20032;-74
2020/12/21 06:54:37;;;;;;;1.83;0.55;;;;;;;10.34;89.94;99243.25;4899309;29;20035;-73
2020/12/21 06:57:03;;;;;;;0.50;0.10;;;;;;;10.36;89.52;99246.53;4923182;29;20032;-73
2020/12/21 06:59:28;;;;;;;1.60;0.22;;;;;;;10.35;89.65;99242.16;4921531;29;20035;-72
2020/12/21 07:01:55;;;;;;;0.65;0.38;;;;;;;10.38;89.83;99208.78;4927235;29;20092;-72
2020/12/21 07:04:23;;;;;;;1.73;0.32;;;;;;;10.45;89.35;99220.16;4918093;29;20030;-73
2020/12/21 07:06:49;;;;;;;3.03;0.20;;;;;;;10.45;89.35;99193.66;4924834;29;20031;-71
2020/12/21 07:09:21;;;;;;;2.38;0.20;;;;;;;10.50;89.55;99197.41;4925944;29;20102;-73
2020/12/21 07:11:52;;;;;;;0.25;0.10;;;;;;;10.47;89.46;99204.28;4922547;29;20044;-73
2020/12/21 07:14:20;;;;;;;0.45;0.10;;;;;;;10.48;89.70;99211.34;4928765;29;20058;-74
2020/12/21 07:16:45;;;;;;;4.05;0.32;;;;;;;10.50;89.46;99205.59;4930217;29;20034;-74
2020/12/21 07:19:11;;;;;;;1.23;0.28;;;;;;;10.51;89.71;99183.44;4894591;29;20031;-75
2020/12/21 07:21:37;;;;;;;0.65;0.30;;;;;;;10.54;89.81;99182.88;4914790;29;20050;-73
2020/12/21 07:24:02;;;;;;;0.80;0.40;;;;;;;10.53;89.57;99178.50;4908356;29;20104;-73
2020/12/21 07:26:28;;;;;;;1.13;0.10;;;;;;;10.52;89.66;99187.00;4921748;29;20547;-72
2020/12/21 07:28:53;;;;;;;0.52;0.10;;;;;;;10.51;89.99;99179.91;4920669;29;20028;-74
2020/12/21 07:31:20;;;;;;;1.77;0.35;;;;;;;10.54;89.66;99171.94;4923428;29;20059;-73
2020/12/21 07:33:54;;;;;;;0.38;0.10;;;;;;;10.55;89.74;99159.88;4913079;29;20150;-74
2020/12/21 07:36:22;;;;;;;0.68;0.13;;;;;;;10.58;89.92;99164.75;4922609;29;20110;-74
2020/12/21 07:38:48;;;;;;;0.20;0.17;;;;;;;10.62;89.63;99146.66;4925655;29;20068;-73
2020/12/21 07:41:14;;;;;;;0.50;0.25;;;;;;;10.64;89.70;99143.59;4918819;29;20509;-73
2020/12/21 07:43:43;;;;;;;0.22;0.08;;;;;;;10.63;89.62;99120.94;4921513;29;20442;-74
2020/12/21 07:46:25;;;;;;;0.22;0.03;;;;;;;10.65;90.04;99121.44;4925345;29;20096;-74
2020/12/21 07:48:51;;;;;;;0.15;0.05;;;;;;;10.67;89.54;99136.75;4925286;29;20493;-74
2020/12/21 07:51:21;;;;;;;0.00;0.00;;;;;;;10.69;89.35;99154.47;4928979;29;20031;-73
2020/12/21 07:53:47;;;;;;;0.32;0.00;;;;;;;10.75;89.92;99149.75;4891211;29;20130;-75
2020/12/21 07:56:14;;;;;;;0.10;0.10;;;;;;;10.78;89.36;99157.34;4929095;29;20123;-75
2020/12/21 07:58:40;;;;;;;0.30;0.10;;;;;;;10.81;89.44;99156.75;4925215;29;20031;-74
2020/12/21 08:01:05;;;;;;;0.63;0.10;;;;;;;10.84;89.83;99161.63;4932455;29;20027;-75
2020/12/21 08:03:31;;;;;;;1.13;0.20;;;;;;;10.87;89.81;99152.81;4910134;29;20032;-74
2020/12/21 08:06:25;;;;;;;0.40;0.10;;;;;;;10.95;89.54;99149.41;4911197;29;20031;-74
2020/12/21 08:08:56;;;;;;;3.33;0.13;;;;;;;10.92;90.05;99147.28;4910553;29;20047;-73
2020/12/21 08:11:22;;;;;;;0.80;0.20;;;;;;;10.97;89.52;99138.97;4927907;29;20035;-74
2020/12/21 08:13:49;;;;;;;0.20;0.20;;;;;;;11.01;89.71;99125.50;4904778;29;20038;-74
2020/12/21 08:16:15;;;;;;;0.75;0.25;;;;;;;11.04;89.66;99137.75;4897568;29;20036;-75
2020/12/21 08:18:43;;;;;;;0.10;0.10;;;;;;;11.10;89.47;99136.56;4920715;29;20027;-74
2020/12/21 08:21:13;;;;;;;2.55;0.20;;;;;;;11.15;89.34;99139.19;4926756;29;20042;-73
2020/12/21 08:23:38;;;;;;;0.30;0.10;;;;;;;11.21;89.30;99148.13;4920397;29;20024;-73
2020/12/21 08:26:13;;;;;;;0.35;0.28;;;;;;;11.24;89.60;99158.47;4916130;29;20031;-73
2020/12/21 08:28:39;;;;;;;0.75;0.30;;;;;;;11.29;89.32;99172.88;4918353;29;20457;-74
2020/12/21 08:31:13;;;;;;;0.60;0.30;;;;;;;11.33;89.72;99162.13;4925055;29;20044;-73
2020/12/21 08:33:43;;;;;;;0.03;0.03;;;;;;;11.37;89.66;99173.31;4929909;29;20044;-75
2020/12/21 08:36:17;;;;;;;0.45;0.20;;;;;;;11.39;89.95;99176.53;4918268;29;20046;-75
2020/12/21 08:38:43;;;;;;;1.10;0.25;;;;;;;11.38;89.76;99174.94;4916533;29;20518;-76
2020/12/21 08:41:09;;;;;;;0.30;0.30;;;;;;;11.42;90.02;99175.94;4921937;29;20035;-76
2020/12/21 08:43:34;;;;;;;0.38;0.38;;;;;;;11.48;89.67;99169.25;4922241;29;20038;-75
2020/12/21 08:46:00;;;;;;;0.55;0.20;;;;;;;11.49;90.00;99168.13;4923446;29;20498;-76
2020/12/21 08:48:26;;;;;;;0.40;0.10;;;;;;;11.51;90.18;99150.28;4906310;29;20036;-75
2020/12/21 08:50:51;;;;;;;0.22;0.22;;;;;;;11.57;90.55;99155.69;4906641;29;20063;-75
2020/12/21 08:53:16;;;;;;;0.30;0.13;;;;;;;11.63;90.58;99159.94;4928249;29;20066;-75
2020/12/21 08:55:42;;;;;;;0.82;0.20;;;;;;;11.65;90.24;99163.19;4924411;29;20028;-76
2020/12/21 08:58:07;;;;;;;0.70;0.10;;;;;;;11.68;90.55;99163.41;4908051;29;20043;-73
2020/12/21 09:00:33;;;;;;;0.63;0.17;;;;;;;11.67;90.68;99161.75;4922395;29;20086;-73
2020/12/21 09:02:58;;;;;;;0.32;0.20;;;;;;;11.78;90.13;99169.78;4919961;29;20066;-77
2020/12/21 09:05:23;;;;;;;0.38;0.25;;;;;;;11.77;90.09;99165.41;4922866;29;20051;-75
2020/12/21 09:07:49;;;;;;;3.95;0.50;;;;;;;11.84;90.75;99179.50;4924198;29;20040;-76
2020/12/21 09:10:14;;;;;;;0.30;0.30;;;;;;;11.87;90.53;99170.69;4942934;28;20024;-76
2020/12/21 09:12:40;;;;;;;0.55;0.30;;;;;;;11.91;90.47;99166.22;4923667;29;20492;-76
2020/12/21 09:15:05;;;;;;;0.38;0.15;;;;;;;11.92;90.68;99167.84;4919393;29;20027;-77
2020/12/21 09:17:30;;;;;;;0.20;0.20;;;;;;;11.95;90.26;99177.41;4927358;29;20119;-76
2020/12/21 09:19:56;;;;;;;0.35;0.13;;;;;;;11.96;90.34;99185.31;4929481;29;20063;-77
2020/12/21 09:22:21;;;;;;;1.05;0.20;;;;;;;12.03;90.83;99193.94;4908039;29;20479;-77
2020/12/21 09:24:49;;;;;;;0.52;0.20;;;;;;;12.08;90.59;99189.50;4928284;29;20103;-77
2020/12/21 09:27:14;;;;;;;0.95;0.20;;;;;;;12.04;90.54;99176.38;4923555;29;20027;-77
2020/12/21 09:29:39;;;;;;;1.02;0.10;;;;;;;12.09;90.41;99177.38;4936577;29;20138;-76
2020/12/21 09:32:05;;;;;;;0.22;0.10;;;;;;;12.11;90.81;99191.59;4931574;29;20028;-77
2020/12/21 09:34:30;;;;;;;0.55;0.20;;;;;;;12.15;90.63;99187.13;4933912;28;20075;-76
2020/12/21 09:36:56;;;;;;;0.65;0.10;;;;;;;12.19;90.60;99188.13;4896948;29;20036;-75
2020/12/21 09:39:21;;;;;;;0.20;0.00;;;;;;;12.26;90.54;99188.53;4896437;29;20028;-75
2020/12/21 09:41:47;;;;;;;0.88;0.10;;;;;;;12.32;90.27;99200.19;4874111;29;20028;-74
2020/12/21 09:44:12;;;;;;;0.15;0.10;;;;;;;12.34;89.92;99198.78;4907151;29;20115;-76
2020/12/21 09:46:37;;;;;;;1.88;0.30;;;;;;;12.35;90.17;99202.31;4918471;29;20040;-76
2020/12/21 09:49:03;;;;;;;0.30;0.30;;;;;;;12.36;90.11;99195.72;4894887;29;20046;-76
2020/12/21 09:51:32;;;;;;;0.45;0.10;;;;;;;12.33;90.19;99188.91;4917838;29;20035;-77
2020/12/21 09:53:58;;;;;;;0.68;0.20;;;;;;;12.35;90.14;99181.22;4903361;29;20036;-77
2020/12/21 09:56:24;;;;;;;0.20;0.20;;;;;;;12.43;90.08;99181.59;4906696;29;20042;-77
2020/12/21 09:58:49;;;;;;;0.43;0.20;;;;;;;12.45;90.43;99173.88;4921226;29;20110;-78
2020/12/21 10:01:14;;;;;;;0.55;0.30;;;;;;;12.49;90.07;99188.59;4909073;29;20426;-74
2020/12/21 10:03:41;;;;;;;2.38;0.30;;;;;;;12.53;90.50;99184.13;4928516;29;20040;-76
2020/12/21 10:06:10;;;;;;;1.25;0.28;;;;;;;12.52;90.36;99169.56;4918301;29;20530;-75
2020/12/21 10:08:37;;;;;;;2.03;0.43;;;;;;;12.49;90.39;99191.34;4918550;29;20276;-76
2020/12/21 10:11:03;;;;;;;2.83;0.32;;;;;;;12.53;90.22;99186.84;4910722;29;20395;-77
2020/12/21 10:13:30;;;;;;;2.15;0.30;;;;;;;12.61;90.25;99183.38;4896186;29;20034;-76
2020/12/21 10:15:55;;;;;;;0.68;0.30;;;;;;;12.63;90.50;99175.66;4907117;29;20070;-76
2020/12/21 10:18:21;;;;;;;0.52;0.20;;;;;;;12.63;90.06;99172.06;4887245;29;20060;-76
2020/12/21 10:20:46;;;;;;;2.60;0.73;;;;;;;12.67;90.08;99187.59;4901238;29;20038;-76
2020/12/21 10:23:13;;;;;;;0.10;0.00;;;;;;;12.69;90.25;99188.13;4879694;29;20116;-78
2020/12/21 10:25:39;;;;;;;2.33;0.20;;;;;;;12.77;89.74;99192.03;4923602;29;20454;-76
2020/12/21 10:28:04;;;;;;;2.58;0.10;;;;;;;12.80;89.65;99207.06;4928480;29;20059;-76
2020/12/21 10:30:30;;;;;;;3.03;0.20;;;;;;;12.81;89.38;99208.72;4930508;29;20154;-79
2020/12/21 10:32:55;;;;;;;2.40;0.20;;;;;;;12.78;89.45;99210.13;4899021;29;20786;-76
2020/12/21 10:35:20;;;;;;;0.90;0.00;;;;;;;12.81;89.62;99216.94;4906943;29;20031;-76
2020/12/21 10:37:46;;;;;;;3.35;0.20;;;;;;;12.82;89.59;99227.59;4901079;29;20036;-76
2020/12/21 10:40:11;;;;;;;0.93;0.80;;;;;;;12.86;89.57;99216.81;4889697;29;20539;-77
2020/12/21 10:42:37;;;;;;;0.65;0.13;;;;;;;12.88;89.46;99225.53;4920003;29;20364;-76
2020/12/21 10:45:03;;;;;;;1.40;0.10;;;;;;;12.94;89.81;99205.09;4925784;29;20032;-74
2020/12/21 10:47:30;;;;;;;1.88;0.20;;;;;;;13.05;89.78;99198.25;4898634;29;20362;-75
2020/12/21 10:49:55;;;;;;;0.68;0.10;;;;;;;13.12;89.53;99191.50;4894358;29;20367;-73
2020/12/21 10:52:21;;;;;;;3.20;0.20;;;;;;;13.27;89.39;99177.34;4910165;29;20095;-76
2020/12/21 10:54:46;;;;;;;0.82;0.20;;;;;;;13.30;88.92;99186.91;4885229;29;20063;-74
2020/12/21 10:57:11;;;;;;;2.10;0.17;;;;;;;13.24;88.68;99186.22;4914450;29;20920;-74
2020/12/21 10:59:37;;;;;;;0.43;0.10;;;;;;;13.22;88.67;99185.75;4881708;29;20042;-75
2020/12/21 11:02:02;;;;;;;5.32;0.40;;;;;;;13.20;88.77;99187.97;4928432;29;20039;-76
2020/12/21 11:04:28;;;;;;;0.68;0.25;;;;;;;13.21;89.03;99184.09;4892562;29;20032;-77
2020/12/21 11:06:55;;;;;;;1.48;0.35;;;;;;;13.31;89.37;99189.34;4909731;29;20038;-73
2020/12/21 11:09:21;;;;;;;1.52;0.10;;;;;;;13.39;89.04;99179.53;4922196;29;20050;-72
2020/12/21 11:11:46;;;;;;;3.47;0.32;;;;;;;13.43;88.69;99186.03;4914325;29;20781;-74
2020/12/21 11:14:11;;;;;;;1.23;0.20;;;;;;;13.52;88.47;99183.34;4889190;29;20039;-74
2020/12/21 11:16:37;;;;;;;0.93;0.20;;;;;;;13.60;88.36;99186.13;4868054;29;20031;-74
2020/12/21 11:19:02;;;;;;;0.80;0.20;;;;;;;13.58;88.18;99187.56;4911492;29;20035;-76
2020/12/21 11:21:34;;;;;;;1.38;0.25;;;;;;;13.55;87.69;99189.03;4883696;29;20066;-76
2020/12/21 11:24:00;;;;;;;1.55;0.38;;;;;;;13.54;88.16;99203.06;4913760;29;20043;-76
2020/12/21 11:26:25;;;;;;;0.43;0.17;;;;;;;13.54;87.61;99197.56;4891534;29;20032;-78
2020/12/21 11:28:51;;;;;;;1.92;0.10;;;;;;;13.58;87.80;99182.06;4920104;29;20399;-76
2020/12/21 11:31:16;;;;;;;1.38;0.38;;;;;;;13.53;88.08;99217.91;4899583;29;20028;-76
2020/12/21 11:33:42;;;;;;;0.38;0.20;;;;;;;13.54;88.04;99233.28;4906693;29;20044;-77